Aviation Digital Data Service (ADDS)

Output produced by METARs form (0605 UTC 29 August 2015)
found at http://aviationweather.gov/adds/metars/
 
KHUL 290534Z 2906/3006 VRB03KT P6SM FEW250 
     FM291600 25007KT P6SM SCT050